sensor_id;sensor_type;location;lat;lon;timestamp;P1;durP1;ratioP1;P2;durP2;ratioP2
1925;SDS011;964;42.606;23.588;2022-08-24T00:02:05;9.37;;;6.40;;
1925;SDS011;964;42.606;23.588;2022-08-24T00:04:32;10.13;;;6.70;;
1925;SDS011;964;42.606;23.588;2022-08-24T00:07:01;11.00;;;7.27;;
1925;SDS011;964;42.606;23.588;2022-08-24T00:09:29;8.60;;;7.07;;
1925;SDS011;964;42.606;23.588;2022-08-24T00:11:56;8.10;;;7.30;;
1925;SDS011;964;42.606;23.588;2022-08-24T00:14:23;17.33;;;6.57;;
1925;SDS011;964;42.606;23.588;2022-08-24T00:16:50;11.33;;;6.90;;
1925;SDS011;964;42.606;23.588;2022-08-24T00:19:18;12.07;;;8.07;;
1925;SDS011;964;42.606;23.588;2022-08-24T00:21:45;11.57;;;7.43;;
1925;SDS011;964;42.606;23.588;2022-08-24T00:24:13;11.03;;;6.70;;
1925;SDS011;964;42.606;23.588;2022-08-24T00:26:40;11.40;;;7.63;;
1925;SDS011;964;42.606;23.588;2022-08-24T00:29:07;9.90;;;7.67;;
1925;SDS011;964;42.606;23.588;2022-08-24T00:31:34;14.90;;;7.60;;
1925;SDS011;964;42.606;23.588;2022-08-24T00:34:00;12.40;;;7.90;;
1925;SDS011;964;42.606;23.588;2022-08-24T00:36:27;9.73;;;7.40;;
1925;SDS011;964;42.606;23.588;2022-08-24T00:38:54;8.50;;;7.40;;
1925;SDS011;964;42.606;23.588;2022-08-24T00:41:22;11.47;;;7.37;;
1925;SDS011;964;42.606;23.588;2022-08-24T00:43:49;10.37;;;6.90;;
1925;SDS011;964;42.606;23.588;2022-08-24T00:46:19;9.27;;;7.73;;
1925;SDS011;964;42.606;23.588;2022-08-24T00:48:53;10.73;;;7.27;;
1925;SDS011;964;42.606;23.588;2022-08-24T00:51:29;10.40;;;7.37;;
1925;SDS011;964;42.606;23.588;2022-08-24T00:54:02;8.40;;;6.73;;
1925;SDS011;964;42.606;23.588;2022-08-24T00:56:35;9.50;;;7.60;;
1925;SDS011;964;42.606;23.588;2022-08-24T00:59:05;13.60;;;6.70;;
1925;SDS011;964;42.606;23.588;2022-08-24T01:01:36;11.43;;;7.40;;
1925;SDS011;964;42.606;23.588;2022-08-24T01:04:04;11.60;;;7.83;;
1925;SDS011;964;42.606;23.588;2022-08-24T01:06:33;10.10;;;8.20;;
1925;SDS011;964;42.606;23.588;2022-08-24T01:09:00;9.77;;;6.83;;
1925;SDS011;964;42.606;23.588;2022-08-24T01:11:28;9.50;;;7.40;;
1925;SDS011;964;42.606;23.588;2022-08-24T01:13:59;12.20;;;6.90;;
1925;SDS011;964;42.606;23.588;2022-08-24T01:16:27;10.80;;;8.47;;
1925;SDS011;964;42.606;23.588;2022-08-24T01:19:15;10.57;;;8.23;;
1925;SDS011;964;42.606;23.588;2022-08-24T01:21:49;14.07;;;8.83;;
1925;SDS011;964;42.606;23.588;2022-08-24T01:24:25;12.43;;;9.00;;
1925;SDS011;964;42.606;23.588;2022-08-24T01:26:52;15.17;;;9.50;;
1925;SDS011;964;42.606;23.588;2022-08-24T01:29:20;15.13;;;10.20;;
1925;SDS011;964;42.606;23.588;2022-08-24T01:31:50;25.23;;;10.33;;
1925;SDS011;964;42.606;23.588;2022-08-24T01:34:17;20.20;;;11.80;;
1925;SDS011;964;42.606;23.588;2022-08-24T01:36:45;37.97;;;12.17;;
1925;SDS011;964;42.606;23.588;2022-08-24T01:39:15;27.03;;;11.47;;
1925;SDS011;964;42.606;23.588;2022-08-24T01:41:46;21.90;;;10.93;;
1925;SDS011;964;42.606;23.588;2022-08-24T01:44:13;12.93;;;9.50;;
1925;SDS011;964;42.606;23.588;2022-08-24T01:46:42;13.73;;;9.20;;
1925;SDS011;964;42.606;23.588;2022-08-24T01:49:09;11.07;;;8.63;;
1925;SDS011;964;42.606;23.588;2022-08-24T01:51:36;13.87;;;9.63;;
1925;SDS011;964;42.606;23.588;2022-08-24T01:54:03;11.80;;;8.80;;
1925;SDS011;964;42.606;23.588;2022-08-24T01:56:31;12.57;;;8.83;;
1925;SDS011;964;42.606;23.588;2022-08-24T01:59:00;12.00;;;8.47;;
1925;SDS011;964;42.606;23.588;2022-08-24T02:01:28;18.50;;;10.33;;
1925;SDS011;964;42.606;23.588;2022-08-24T02:03:57;12.37;;;8.60;;
1925;SDS011;964;42.606;23.588;2022-08-24T02:06:27;11.60;;;8.47;;
1925;SDS011;964;42.606;23.588;2022-08-24T02:08:54;12.63;;;9.70;;
1925;SDS011;964;42.606;23.588;2022-08-24T02:11:21;13.87;;;9.17;;
1925;SDS011;964;42.606;23.588;2022-08-24T02:13:47;13.30;;;9.00;;
1925;SDS011;964;42.606;23.588;2022-08-24T02:16:16;17.30;;;9.83;;
1925;SDS011;964;42.606;23.588;2022-08-24T02:18:42;13.93;;;9.97;;
1925;SDS011;964;42.606;23.588;2022-08-24T02:21:10;12.77;;;9.37;;
1925;SDS011;964;42.606;23.588;2022-08-24T02:23:39;15.70;;;10.40;;
1925;SDS011;964;42.606;23.588;2022-08-24T02:26:07;12.07;;;8.07;;
1925;SDS011;964;42.606;23.588;2022-08-24T02:28:35;14.63;;;8.93;;
1925;SDS011;964;42.606;23.588;2022-08-24T02:31:03;14.57;;;8.80;;
1925;SDS011;964;42.606;23.588;2022-08-24T02:33:33;15.20;;;9.03;;
1925;SDS011;964;42.606;23.588;2022-08-24T02:36:00;13.83;;;9.10;;
1925;SDS011;964;42.606;23.588;2022-08-24T02:38:27;13.43;;;8.90;;
1925;SDS011;964;42.606;23.588;2022-08-24T02:40:54;14.60;;;8.80;;
1925;SDS011;964;42.606;23.588;2022-08-24T02:43:21;12.30;;;8.47;;
1925;SDS011;964;42.606;23.588;2022-08-24T02:45:48;15.60;;;9.33;;
1925;SDS011;964;42.606;23.588;2022-08-24T02:48:16;12.30;;;8.47;;
1925;SDS011;964;42.606;23.588;2022-08-24T02:50:45;14.10;;;8.17;;
1925;SDS011;964;42.606;23.588;2022-08-24T02:53:14;15.87;;;8.90;;
1925;SDS011;964;42.606;23.588;2022-08-24T02:55:42;11.53;;;8.27;;
1925;SDS011;964;42.606;23.588;2022-08-24T02:58:10;10.80;;;8.23;;
1925;SDS011;964;42.606;23.588;2022-08-24T03:00:39;12.60;;;7.80;;
1925;SDS011;964;42.606;23.588;2022-08-24T03:03:06;10.27;;;7.80;;
1925;SDS011;964;42.606;23.588;2022-08-24T03:05:35;11.40;;;7.80;;
1925;SDS011;964;42.606;23.588;2022-08-24T03:08:04;15.47;;;8.27;;
1925;SDS011;964;42.606;23.588;2022-08-24T03:10:31;12.90;;;7.23;;
1925;SDS011;964;42.606;23.588;2022-08-24T03:12:58;8.70;;;6.87;;
1925;SDS011;964;42.606;23.588;2022-08-24T03:15:25;10.97;;;7.50;;
1925;SDS011;964;42.606;23.588;2022-08-24T03:17:53;8.07;;;6.60;;
1925;SDS011;964;42.606;23.588;2022-08-24T03:20:20;12.67;;;8.80;;
1925;SDS011;964;42.606;23.588;2022-08-24T03:22:48;11.20;;;7.20;;
1925;SDS011;964;42.606;23.588;2022-08-24T03:25:16;13.27;;;7.73;;
1925;SDS011;964;42.606;23.588;2022-08-24T03:27:44;11.40;;;7.27;;
1925;SDS011;964;42.606;23.588;2022-08-24T03:30:12;9.00;;;6.80;;
1925;SDS011;964;42.606;23.588;2022-08-24T03:32:40;11.33;;;7.53;;
1925;SDS011;964;42.606;23.588;2022-08-24T03:35:08;8.23;;;7.43;;
1925;SDS011;964;42.606;23.588;2022-08-24T03:37:36;13.97;;;8.53;;
1925;SDS011;964;42.606;23.588;2022-08-24T03:40:04;8.87;;;6.77;;
1925;SDS011;964;42.606;23.588;2022-08-24T03:42:33;11.10;;;7.37;;
1925;SDS011;964;42.606;23.588;2022-08-24T03:44:59;13.70;;;8.30;;
1925;SDS011;964;42.606;23.588;2022-08-24T03:47:26;8.77;;;6.40;;
1925;SDS011;964;42.606;23.588;2022-08-24T03:49:53;8.47;;;7.03;;
1925;SDS011;964;42.606;23.588;2022-08-24T03:52:20;10.37;;;8.07;;
1925;SDS011;964;42.606;23.588;2022-08-24T03:54:47;13.07;;;8.60;;
1925;SDS011;964;42.606;23.588;2022-08-24T03:57:14;9.83;;;7.60;;
1925;SDS011;964;42.606;23.588;2022-08-24T03:59:42;11.93;;;8.80;;
1925;SDS011;964;42.606;23.588;2022-08-24T04:02:09;9.90;;;8.00;;
1925;SDS011;964;42.606;23.588;2022-08-24T04:04:36;15.20;;;8.83;;
1925;SDS011;964;42.606;23.588;2022-08-24T04:07:03;11.00;;;7.83;;
1925;SDS011;964;42.606;23.588;2022-08-24T04:09:30;12.13;;;8.67;;
1925;SDS011;964;42.606;23.588;2022-08-24T04:11:57;14.07;;;8.10;;
1925;SDS011;964;42.606;23.588;2022-08-24T04:14:24;12.63;;;9.17;;
1925;SDS011;964;42.606;23.588;2022-08-24T04:16:52;12.00;;;8.30;;
1925;SDS011;964;42.606;23.588;2022-08-24T04:19:19;10.33;;;7.87;;
1925;SDS011;964;42.606;23.588;2022-08-24T04:21:46;15.30;;;8.03;;
1925;SDS011;964;42.606;23.588;2022-08-24T04:24:14;10.80;;;8.43;;
1925;SDS011;964;42.606;23.588;2022-08-24T04:26:41;12.13;;;7.70;;
1925;SDS011;964;42.606;23.588;2022-08-24T04:29:09;11.73;;;9.37;;
1925;SDS011;964;42.606;23.588;2022-08-24T04:31:36;19.30;;;9.90;;
1925;SDS011;964;42.606;23.588;2022-08-24T04:34:06;13.70;;;9.77;;
1925;SDS011;964;42.606;23.588;2022-08-24T04:36:34;13.00;;;9.00;;
1925;SDS011;964;42.606;23.588;2022-08-24T04:39:01;17.03;;;9.47;;
1925;SDS011;964;42.606;23.588;2022-08-24T04:41:30;12.97;;;9.40;;
1925;SDS011;964;42.606;23.588;2022-08-24T04:43:57;16.63;;;10.50;;
1925;SDS011;964;42.606;23.588;2022-08-24T04:46:24;16.53;;;9.63;;
1925;SDS011;964;42.606;23.588;2022-08-24T04:48:50;14.90;;;10.00;;
1925;SDS011;964;42.606;23.588;2022-08-24T04:51:18;12.93;;;9.50;;
1925;SDS011;964;42.606;23.588;2022-08-24T04:53:46;10.13;;;7.83;;
1925;SDS011;964;42.606;23.588;2022-08-24T04:56:14;11.33;;;8.17;;
1925;SDS011;964;42.606;23.588;2022-08-24T04:58:43;11.60;;;8.30;;
1925;SDS011;964;42.606;23.588;2022-08-24T05:01:12;13.20;;;8.67;;
1925;SDS011;964;42.606;23.588;2022-08-24T05:03:42;12.83;;;9.57;;
1925;SDS011;964;42.606;23.588;2022-08-24T05:06:10;16.93;;;9.57;;
1925;SDS011;964;42.606;23.588;2022-08-24T05:08:40;15.93;;;10.30;;
1925;SDS011;964;42.606;23.588;2022-08-24T05:11:07;12.60;;;9.60;;
1925;SDS011;964;42.606;23.588;2022-08-24T05:13:34;12.87;;;9.27;;
1925;SDS011;964;42.606;23.588;2022-08-24T05:16:04;12.37;;;10.20;;
1925;SDS011;964;42.606;23.588;2022-08-24T05:18:31;15.83;;;10.90;;
1925;SDS011;964;42.606;23.588;2022-08-24T05:20:58;14.23;;;9.83;;
1925;SDS011;964;42.606;23.588;2022-08-24T05:23:25;11.67;;;10.00;;
1925;SDS011;964;42.606;23.588;2022-08-24T05:26:03;15.37;;;9.47;;
1925;SDS011;964;42.606;23.588;2022-08-24T05:28:30;12.70;;;9.87;;
1925;SDS011;964;42.606;23.588;2022-08-24T05:31:04;14.37;;;10.60;;
1925;SDS011;964;42.606;23.588;2022-08-24T05:33:33;14.80;;;9.83;;
1925;SDS011;964;42.606;23.588;2022-08-24T05:36:00;12.73;;;10.70;;
1925;SDS011;964;42.606;23.588;2022-08-24T05:38:27;14.10;;;10.50;;
1925;SDS011;964;42.606;23.588;2022-08-24T05:40:54;12.40;;;10.10;;
1925;SDS011;964;42.606;23.588;2022-08-24T05:43:22;11.10;;;9.00;;
1925;SDS011;964;42.606;23.588;2022-08-24T05:45:49;12.13;;;9.73;;
1925;SDS011;964;42.606;23.588;2022-08-24T05:48:15;11.17;;;8.77;;
1925;SDS011;964;42.606;23.588;2022-08-24T05:50:42;11.60;;;8.80;;
1925;SDS011;964;42.606;23.588;2022-08-24T05:53:09;11.40;;;7.83;;
1925;SDS011;964;42.606;23.588;2022-08-24T05:55:36;7.30;;;6.57;;
1925;SDS011;964;42.606;23.588;2022-08-24T05:58:04;10.37;;;6.67;;
1925;SDS011;964;42.606;23.588;2022-08-24T06:00:33;9.70;;;6.80;;
1925;SDS011;964;42.606;23.588;2022-08-24T06:03:00;10.53;;;5.77;;
1925;SDS011;964;42.606;23.588;2022-08-24T06:05:26;10.43;;;6.00;;
1925;SDS011;964;42.606;23.588;2022-08-24T06:07:53;7.60;;;5.50;;
1925;SDS011;964;42.606;23.588;2022-08-24T06:10:20;7.20;;;5.83;;
1925;SDS011;964;42.606;23.588;2022-08-24T06:12:47;8.80;;;5.97;;
1925;SDS011;964;42.606;23.588;2022-08-24T06:15:13;8.47;;;6.37;;
1925;SDS011;964;42.606;23.588;2022-08-24T06:17:42;8.33;;;6.03;;
1925;SDS011;964;42.606;23.588;2022-08-24T06:20:09;8.70;;;6.20;;
1925;SDS011;964;42.606;23.588;2022-08-24T06:22:36;7.70;;;5.73;;
1925;SDS011;964;42.606;23.588;2022-08-24T06:25:03;7.10;;;5.10;;
1925;SDS011;964;42.606;23.588;2022-08-24T06:27:48;7.20;;;5.03;;
1925;SDS011;964;42.606;23.588;2022-08-24T06:30:15;5.30;;;4.40;;
1925;SDS011;964;42.606;23.588;2022-08-24T06:32:43;7.57;;;5.40;;
1925;SDS011;964;42.606;23.588;2022-08-24T06:35:10;9.30;;;5.03;;
1925;SDS011;964;42.606;23.588;2022-08-24T06:37:37;6.43;;;4.97;;
1925;SDS011;964;42.606;23.588;2022-08-24T06:40:04;8.03;;;5.50;;
1925;SDS011;964;42.606;23.588;2022-08-24T06:42:31;8.37;;;4.97;;
1925;SDS011;964;42.606;23.588;2022-08-24T06:44:58;7.50;;;4.80;;
1925;SDS011;964;42.606;23.588;2022-08-24T06:47:25;6.33;;;4.77;;
1925;SDS011;964;42.606;23.588;2022-08-24T06:49:53;5.90;;;4.60;;
1925;SDS011;964;42.606;23.588;2022-08-24T06:52:19;5.50;;;4.90;;
1925;SDS011;964;42.606;23.588;2022-08-24T06:54:46;5.33;;;4.83;;
1925;SDS011;964;42.606;23.588;2022-08-24T06:57:13;5.20;;;4.70;;
1925;SDS011;964;42.606;23.588;2022-08-24T06:59:39;5.93;;;4.63;;
1925;SDS011;964;42.606;23.588;2022-08-24T07:02:07;6.53;;;5.20;;
1925;SDS011;964;42.606;23.588;2022-08-24T07:04:37;5.20;;;4.70;;
1925;SDS011;964;42.606;23.588;2022-08-24T07:07:06;5.10;;;4.60;;
1925;SDS011;964;42.606;23.588;2022-08-24T07:09:32;7.93;;;4.40;;
1925;SDS011;964;42.606;23.588;2022-08-24T07:11:59;5.83;;;4.37;;
1925;SDS011;964;42.606;23.588;2022-08-24T07:14:26;5.23;;;4.73;;
1925;SDS011;964;42.606;23.588;2022-08-24T07:16:53;7.27;;;4.40;;
1925;SDS011;964;42.606;23.588;2022-08-24T07:19:20;6.13;;;5.10;;
1925;SDS011;964;42.606;23.588;2022-08-24T07:21:47;5.50;;;4.37;;
1925;SDS011;964;42.606;23.588;2022-08-24T07:24:15;4.47;;;4.10;;
1925;SDS011;964;42.606;23.588;2022-08-24T07:26:42;5.20;;;4.70;;
1925;SDS011;964;42.606;23.588;2022-08-24T07:29:09;4.40;;;4.00;;
1925;SDS011;964;42.606;23.588;2022-08-24T07:31:39;5.37;;;4.87;;
1925;SDS011;964;42.606;23.588;2022-08-24T07:34:07;5.07;;;4.20;;
1925;SDS011;964;42.606;23.588;2022-08-24T07:36:36;6.10;;;4.43;;
1925;SDS011;964;42.606;23.588;2022-08-24T07:39:05;5.57;;;4.17;;
1925;SDS011;964;42.606;23.588;2022-08-24T07:41:35;4.77;;;4.30;;
1925;SDS011;964;42.606;23.588;2022-08-24T07:44:03;7.13;;;4.23;;
1925;SDS011;964;42.606;23.588;2022-08-24T07:46:30;6.00;;;4.57;;
1925;SDS011;964;42.606;23.588;2022-08-24T07:48:57;5.33;;;4.83;;
1925;SDS011;964;42.606;23.588;2022-08-24T07:51:24;4.80;;;4.20;;
1925;SDS011;964;42.606;23.588;2022-08-24T07:53:52;4.70;;;4.30;;
1925;SDS011;964;42.606;23.588;2022-08-24T07:56:19;7.00;;;4.23;;
1925;SDS011;964;42.606;23.588;2022-08-24T07:58:47;6.60;;;4.87;;
1925;SDS011;964;42.606;23.588;2022-08-24T08:01:14;4.93;;;4.43;;
1925;SDS011;964;42.606;23.588;2022-08-24T08:03:42;5.33;;;3.97;;
1925;SDS011;964;42.606;23.588;2022-08-24T08:06:09;4.70;;;4.30;;
1925;SDS011;964;42.606;23.588;2022-08-24T08:08:36;4.57;;;4.17;;
1925;SDS011;964;42.606;23.588;2022-08-24T08:11:05;7.60;;;4.63;;
1925;SDS011;964;42.606;23.588;2022-08-24T08:13:33;4.93;;;4.43;;
1925;SDS011;964;42.606;23.588;2022-08-24T08:16:02;7.10;;;4.83;;
1925;SDS011;964;42.606;23.588;2022-08-24T08:18:30;5.43;;;4.67;;
1925;SDS011;964;42.606;23.588;2022-08-24T08:20:57;5.50;;;5.00;;
1925;SDS011;964;42.606;23.588;2022-08-24T08:23:24;4.90;;;4.50;;
1925;SDS011;964;42.606;23.588;2022-08-24T08:26:11;6.33;;;4.87;;
1925;SDS011;964;42.606;23.588;2022-08-24T08:28:40;6.43;;;5.83;;
1925;SDS011;964;42.606;23.588;2022-08-24T08:31:08;5.03;;;4.53;;
1925;SDS011;964;42.606;23.588;2022-08-24T08:33:35;5.53;;;4.23;;
1925;SDS011;964;42.606;23.588;2022-08-24T08:36:03;5.00;;;4.60;;
1925;SDS011;964;42.606;23.588;2022-08-24T08:38:32;5.40;;;4.63;;
1925;SDS011;964;42.606;23.588;2022-08-24T08:41:03;6.17;;;4.57;;
1925;SDS011;964;42.606;23.588;2022-08-24T08:43:44;4.07;;;3.67;;
1925;SDS011;964;42.606;23.588;2022-08-24T08:46:18;6.60;;;4.90;;
1925;SDS011;964;42.606;23.588;2022-08-24T08:49:02;4.20;;;3.80;;
1925;SDS011;964;42.606;23.588;2022-08-24T08:54:43;4.50;;;4.10;;
1925;SDS011;964;42.606;23.588;2022-08-24T08:57:24;4.10;;;3.73;;
1925;SDS011;964;42.606;23.588;2022-08-24T09:00:06;4.40;;;4.00;;
1925;SDS011;964;42.606;23.588;2022-08-24T09:02:54;5.77;;;3.80;;
1925;SDS011;964;42.606;23.588;2022-08-24T09:08:32;4.70;;;3.93;;
1925;SDS011;964;42.606;23.588;2022-08-24T09:11:14;4.87;;;4.47;;
1925;SDS011;964;42.606;23.588;2022-08-24T09:14:05;4.80;;;4.30;;
1925;SDS011;964;42.606;23.588;2022-08-24T09:17:00;4.10;;;3.70;;
1925;SDS011;964;42.606;23.588;2022-08-24T09:19:46;5.57;;;4.13;;
1925;SDS011;964;42.606;23.588;2022-08-24T09:22:24;4.60;;;4.20;;
1925;SDS011;964;42.606;23.588;2022-08-24T09:27:52;5.00;;;4.50;;
1925;SDS011;964;42.606;23.588;2022-08-24T09:30:30;6.97;;;4.13;;
1925;SDS011;964;42.606;23.588;2022-08-24T09:33:13;5.47;;;4.00;;
1925;SDS011;964;42.606;23.588;2022-08-24T09:35:57;4.27;;;3.87;;
1925;SDS011;964;42.606;23.588;2022-08-24T09:38:35;4.57;;;4.20;;
1925;SDS011;964;42.606;23.588;2022-08-24T09:41:52;4.60;;;4.20;;
1925;SDS011;964;42.606;23.588;2022-08-24T09:44:37;8.97;;;4.53;;
1925;SDS011;964;42.606;23.588;2022-08-24T09:53:46;4.00;;;3.60;;
1925;SDS011;964;42.606;23.588;2022-08-24T09:56:38;4.50;;;4.05;;
1925;SDS011;964;42.606;23.588;2022-08-24T09:59:35;5.50;;;4.25;;
1925;SDS011;964;42.606;23.588;2022-08-24T10:02:21;4.10;;;3.80;;
1925;SDS011;964;42.606;23.588;2022-08-24T10:05:02;6.32;;;4.72;;
1925;SDS011;964;42.606;23.588;2022-08-24T10:07:39;6.22;;;4.82;;
1925;SDS011;964;42.606;23.588;2022-08-24T10:10:27;4.38;;;3.97;;
1925;SDS011;964;42.606;23.588;2022-08-24T10:13:04;4.68;;;3.90;;
1925;SDS011;964;42.606;23.588;2022-08-24T10:15:42;8.02;;;4.07;;
1925;SDS011;964;42.606;23.588;2022-08-24T10:18:24;3.85;;;3.35;;
1925;SDS011;964;42.606;23.588;2022-08-24T10:21:22;4.43;;;4.07;;
1925;SDS011;964;42.606;23.588;2022-08-24T10:24:10;4.40;;;3.97;;
1925;SDS011;964;42.606;23.588;2022-08-24T10:26:57;3.97;;;3.67;;
1925;SDS011;964;42.606;23.588;2022-08-24T10:29:36;6.27;;;3.63;;
1925;SDS011;964;42.606;23.588;2022-08-24T10:32:21;5.60;;;3.90;;
1925;SDS011;964;42.606;23.588;2022-08-24T10:35:04;3.93;;;3.43;;
1925;SDS011;964;42.606;23.588;2022-08-24T10:37:40;5.70;;;3.93;;
1925;SDS011;964;42.606;23.588;2022-08-24T10:40:37;4.20;;;3.13;;
1925;SDS011;964;42.606;23.588;2022-08-24T10:43:22;4.90;;;4.17;;
1925;SDS011;964;42.606;23.588;2022-08-24T10:49:20;3.90;;;3.47;;
1925;SDS011;964;42.606;23.588;2022-08-24T10:52:14;3.60;;;3.30;;
1925;SDS011;964;42.606;23.588;2022-08-24T10:55:11;5.00;;;3.53;;
1925;SDS011;964;42.606;23.588;2022-08-24T10:57:42;4.82;;;3.35;;
1925;SDS011;964;42.606;23.588;2022-08-24T11:00:25;3.93;;;3.63;;
1925;SDS011;964;42.606;23.588;2022-08-24T11:03:04;4.38;;;3.60;;
1925;SDS011;964;42.606;23.588;2022-08-24T11:05:34;4.70;;;4.15;;
1925;SDS011;964;42.606;23.588;2022-08-24T11:08:06;4.10;;;3.65;;
1925;SDS011;964;42.606;23.588;2022-08-24T11:10:34;5.33;;;4.50;;
1925;SDS011;964;42.606;23.588;2022-08-24T11:13:12;5.50;;;4.10;;
1925;SDS011;964;42.606;23.588;2022-08-24T11:15:47;4.77;;;3.97;;
1925;SDS011;964;42.606;23.588;2022-08-24T11:18:15;4.50;;;4.10;;
1925;SDS011;964;42.606;23.588;2022-08-24T11:20:44;5.20;;;4.57;;
1925;SDS011;964;42.606;23.588;2022-08-24T11:23:14;4.03;;;3.73;;
1925;SDS011;964;42.606;23.588;2022-08-24T11:25:44;5.40;;;4.10;;
1925;SDS011;964;42.606;23.588;2022-08-24T11:28:22;6.43;;;4.30;;
1925;SDS011;964;42.606;23.588;2022-08-24T11:30:56;4.30;;;3.90;;
1925;SDS011;964;42.606;23.588;2022-08-24T11:33:24;4.40;;;4.00;;
1925;SDS011;964;42.606;23.588;2022-08-24T11:35:54;4.47;;;4.07;;
1925;SDS011;964;42.606;23.588;2022-08-24T11:38:22;4.10;;;3.50;;
1925;SDS011;964;42.606;23.588;2022-08-24T11:40:52;8.70;;;3.90;;
1925;SDS011;964;42.606;23.588;2022-08-24T11:43:31;4.30;;;3.40;;
1925;SDS011;964;42.606;23.588;2022-08-24T11:46:12;4.90;;;3.80;;
1925;SDS011;964;42.606;23.588;2022-08-24T11:48:52;4.10;;;3.70;;
1925;SDS011;964;42.606;23.588;2022-08-24T11:51:31;4.57;;;4.18;;
1925;SDS011;964;42.606;23.588;2022-08-24T11:54:08;5.80;;;4.10;;
1925;SDS011;964;42.606;23.588;2022-08-24T11:57:03;7.23;;;4.80;;
1925;SDS011;964;42.606;23.588;2022-08-24T11:59:36;5.50;;;4.33;;
1925;SDS011;964;42.606;23.588;2022-08-24T12:02:17;4.67;;;4.13;;
1925;SDS011;964;42.606;23.588;2022-08-24T12:04:52;16.00;;;5.20;;
1925;SDS011;964;42.606;23.588;2022-08-24T12:07:30;5.40;;;4.77;;
1925;SDS011;964;42.606;23.588;2022-08-24T12:10:13;5.60;;;5.10;;
1925;SDS011;964;42.606;23.588;2022-08-24T12:12:48;6.37;;;5.00;;
1925;SDS011;964;42.606;23.588;2022-08-24T12:15:22;6.40;;;4.70;;
1925;SDS011;964;42.606;23.588;2022-08-24T12:18:01;7.17;;;4.50;;
1925;SDS011;964;42.606;23.588;2022-08-24T12:20:36;9.70;;;4.43;;
1925;SDS011;964;42.606;23.588;2022-08-24T12:23:07;5.57;;;4.53;;
1925;SDS011;964;42.606;23.588;2022-08-24T12:25:37;6.13;;;5.70;;
1925;SDS011;964;42.606;23.588;2022-08-24T12:28:22;5.00;;;4.43;;
1925;SDS011;964;42.606;23.588;2022-08-24T12:31:05;8.00;;;4.47;;
1925;SDS011;964;42.606;23.588;2022-08-24T12:33:38;7.95;;;5.10;;
1925;SDS011;964;42.606;23.588;2022-08-24T12:36:14;6.78;;;4.22;;
1925;SDS011;964;42.606;23.588;2022-08-24T12:38:47;6.03;;;4.38;;
1925;SDS011;964;42.606;23.588;2022-08-24T12:41:30;6.57;;;4.20;;
1925;SDS011;964;42.606;23.588;2022-08-24T12:44:01;8.38;;;5.00;;
1925;SDS011;964;42.606;23.588;2022-08-24T12:46:33;8.35;;;4.85;;
1925;SDS011;964;42.606;23.588;2022-08-24T12:49:04;4.97;;;4.50;;
1925;SDS011;964;42.606;23.588;2022-08-24T12:51:40;6.50;;;4.30;;
1925;SDS011;964;42.606;23.588;2022-08-24T13:00:18;5.47;;;4.57;;
1925;SDS011;964;42.606;23.588;2022-08-24T13:02:53;8.80;;;5.10;;
1925;SDS011;964;42.606;23.588;2022-08-24T13:05:23;4.07;;;3.63;;
1925;SDS011;964;42.606;23.588;2022-08-24T13:08:07;5.70;;;4.13;;
1925;SDS011;964;42.606;23.588;2022-08-24T13:10:37;4.53;;;4.13;;
1925;SDS011;964;42.606;23.588;2022-08-24T13:13:13;6.63;;;4.23;;
1925;SDS011;964;42.606;23.588;2022-08-24T13:15:58;8.53;;;4.27;;
1925;SDS011;964;42.606;23.588;2022-08-24T13:21:38;9.03;;;4.97;;
1925;SDS011;964;42.606;23.588;2022-08-24T13:33:00;8.97;;;6.60;;
1925;SDS011;964;42.606;23.588;2022-08-24T13:35:32;6.97;;;4.80;;
1925;SDS011;964;42.606;23.588;2022-08-24T13:38:23;3.93;;;3.57;;
1925;SDS011;964;42.606;23.588;2022-08-24T13:41:11;7.47;;;5.37;;
1925;SDS011;964;42.606;23.588;2022-08-24T13:43:49;9.60;;;5.17;;
1925;SDS011;964;42.606;23.588;2022-08-24T13:46:22;8.00;;;4.30;;
1925;SDS011;964;42.606;23.588;2022-08-24T13:48:57;7.53;;;4.70;;
1925;SDS011;964;42.606;23.588;2022-08-24T13:51:35;5.30;;;4.83;;
1925;SDS011;964;42.606;23.588;2022-08-24T13:54:13;7.93;;;4.50;;
1925;SDS011;964;42.606;23.588;2022-08-24T13:56:56;5.50;;;5.00;;
1925;SDS011;964;42.606;23.588;2022-08-24T13:59:46;9.30;;;5.00;;
1925;SDS011;964;42.606;23.588;2022-08-24T14:02:25;6.07;;;4.70;;
1925;SDS011;964;42.606;23.588;2022-08-24T14:05:02;10.90;;;4.80;;
1925;SDS011;964;42.606;23.588;2022-08-24T14:07:44;6.33;;;5.73;;
1925;SDS011;964;42.606;23.588;2022-08-24T14:10:30;10.20;;;5.50;;
1925;SDS011;964;42.606;23.588;2022-08-24T14:13:05;6.00;;;5.20;;
1925;SDS011;964;42.606;23.588;2022-08-24T14:15:47;6.60;;;4.40;;
1925;SDS011;964;42.606;23.588;2022-08-24T14:18:44;6.73;;;5.03;;
1925;SDS011;964;42.606;23.588;2022-08-24T14:21:23;4.70;;;4.30;;
1925;SDS011;964;42.606;23.588;2022-08-24T14:24:01;7.33;;;4.83;;
1925;SDS011;964;42.606;23.588;2022-08-24T14:26:53;4.93;;;4.50;;
1925;SDS011;964;42.606;23.588;2022-08-24T14:35:17;6.63;;;5.50;;
1925;SDS011;964;42.606;23.588;2022-08-24T14:37:55;9.27;;;4.73;;
1925;SDS011;964;42.606;23.588;2022-08-24T14:40:50;6.07;;;4.57;;
1925;SDS011;964;42.606;23.588;2022-08-24T14:43:25;7.30;;;5.13;;
1925;SDS011;964;42.606;23.588;2022-08-24T14:46:02;7.03;;;4.73;;
1925;SDS011;964;42.606;23.588;2022-08-24T14:48:38;8.33;;;5.37;;
1925;SDS011;964;42.606;23.588;2022-08-24T14:51:22;9.60;;;5.40;;
1925;SDS011;964;42.606;23.588;2022-08-24T14:54:09;5.60;;;5.07;;
1925;SDS011;964;42.606;23.588;2022-08-24T14:56:45;10.60;;;6.10;;
1925;SDS011;964;42.606;23.588;2022-08-24T14:59:25;9.20;;;4.93;;
1925;SDS011;964;42.606;23.588;2022-08-24T15:02:14;8.83;;;5.30;;
1925;SDS011;964;42.606;23.588;2022-08-24T15:05:02;11.27;;;6.07;;
1925;SDS011;964;42.606;23.588;2022-08-24T15:07:39;8.17;;;5.20;;
1925;SDS011;964;42.606;23.588;2022-08-24T15:10:19;6.30;;;5.67;;
1925;SDS011;964;42.606;23.588;2022-08-24T15:12:50;13.40;;;6.20;;
1925;SDS011;964;42.606;23.588;2022-08-24T15:15:23;6.50;;;5.40;;
1925;SDS011;964;42.606;23.588;2022-08-24T15:17:58;8.13;;;4.37;;
1925;SDS011;964;42.606;23.588;2022-08-24T15:20:40;7.03;;;4.40;;
1925;SDS011;964;42.606;23.588;2022-08-24T15:23:25;11.17;;;5.27;;
1925;SDS011;964;42.606;23.588;2022-08-24T15:26:10;14.30;;;5.70;;
1925;SDS011;964;42.606;23.588;2022-08-24T15:28:47;7.17;;;4.83;;
1925;SDS011;964;42.606;23.588;2022-08-24T15:31:19;7.03;;;5.10;;
1925;SDS011;964;42.606;23.588;2022-08-24T15:33:50;9.53;;;5.67;;
1925;SDS011;964;42.606;23.588;2022-08-24T15:36:18;7.70;;;5.37;;
1925;SDS011;964;42.606;23.588;2022-08-24T15:38:45;8.73;;;4.73;;
1925;SDS011;964;42.606;23.588;2022-08-24T15:41:16;20.03;;;6.80;;
1925;SDS011;964;42.606;23.588;2022-08-24T15:43:47;9.60;;;4.90;;
1925;SDS011;964;42.606;23.588;2022-08-24T15:46:24;11.50;;;4.90;;
1925;SDS011;964;42.606;23.588;2022-08-24T15:48:56;18.13;;;5.43;;
1925;SDS011;964;42.606;23.588;2022-08-24T15:51:35;11.73;;;5.37;;
1925;SDS011;964;42.606;23.588;2022-08-24T15:54:15;16.00;;;5.30;;
1925;SDS011;964;42.606;23.588;2022-08-24T15:56:57;13.93;;;6.23;;
1925;SDS011;964;42.606;23.588;2022-08-24T15:59:26;10.43;;;5.20;;
1925;SDS011;964;42.606;23.588;2022-08-24T16:01:58;11.30;;;5.00;;
1925;SDS011;964;42.606;23.588;2022-08-24T16:05:09;12.60;;;5.53;;
1925;SDS011;964;42.606;23.588;2022-08-24T16:07:57;13.20;;;5.27;;
1925;SDS011;964;42.606;23.588;2022-08-24T16:10:34;11.00;;;5.33;;
1925;SDS011;964;42.606;23.588;2022-08-24T16:13:05;11.03;;;5.60;;
1925;SDS011;964;42.606;23.588;2022-08-24T16:15:33;14.20;;;5.30;;
1925;SDS011;964;42.606;23.588;2022-08-24T16:18:12;9.47;;;5.40;;
1925;SDS011;964;42.606;23.588;2022-08-24T16:20:40;11.83;;;5.40;;
1925;SDS011;964;42.606;23.588;2022-08-24T16:23:08;12.73;;;5.47;;
1925;SDS011;964;42.606;23.588;2022-08-24T16:25:38;13.00;;;6.23;;
1925;SDS011;964;42.606;23.588;2022-08-24T16:28:08;14.80;;;4.93;;